Time;durP1;ratioP1;P1;durP2;ratioP2;P2;SDS_P1;SDS_P2;PMS_P1;PMS_P2;Temp;Humidity;BMP_temperature;BMP_pressure;BME280_temperature;BME280_humidity;BME280_pressure;Samples;Min_cycle;Max_cycle;Signal;HPM_P1;HPM_P2
2022/03/28 00:01:26;;;;;;;17.52;7.38;;;;;;;5.98;74.16;102617.88;5035377;28;20029;-83
2022/03/28 00:03:52;;;;;;;14.07;6.70;;;;;;;5.97;74.25;102618.81;5025699;28;20028;-84
2022/03/28 00:06:17;;;;;;;17.98;7.10;;;;;;;5.96;75.13;102619.72;5040870;28;20099;-83
2022/03/28 00:08:42;;;;;;;13.93;7.28;;;;;;;5.90;75.10;102609.03;5029479;28;20048;-83
2022/03/28 00:11:08;;;;;;;16.85;7.30;;;;;;;5.87;74.62;102618.13;5028124;28;20520;-82
2022/03/28 00:13:35;;;;;;;15.45;6.05;;;;;;;5.87;73.54;102618.13;5033374;28;20072;-86
2022/03/28 00:16:00;;;;;;;17.10;6.63;;;;;;;5.81;73.88;102610.16;5046496;28;20037;-85
2022/03/28 00:18:26;;;;;;;16.67;6.90;;;;;;;5.79;74.70;102611.13;5045464;28;20147;-87
2022/03/28 00:20:53;;;;;;;18.50;7.70;;;;;;;5.79;74.01;102603.03;5031784;28;20083;-85
2022/03/28 00:23:19;;;;;;;17.85;6.65;;;;;;;5.82;76.39;102602.94;5032931;28;20032;-86
2022/03/28 00:25:45;;;;;;;18.13;6.93;;;;;;;5.77;76.53;102594.06;5047711;28;20075;-82
2022/03/28 00:28:12;;;;;;;14.93;6.10;;;;;;;5.73;75.47;102590.53;5030299;28;20158;-84
2022/03/28 00:30:38;;;;;;;18.80;7.72;;;;;;;5.63;75.82;102570.97;5049390;28;20030;-83
2022/03/28 00:33:04;;;;;;;18.33;7.22;;;;;;;5.65;75.62;102573.66;5046789;28;20502;-86
2022/03/28 00:35:29;;;;;;;16.13;7.20;;;;;;;5.64;75.02;102577.25;5046609;28;20025;-83
2022/03/28 00:37:55;;;;;;;18.42;7.43;;;;;;;5.62;75.24;102582.69;5049312;28;20041;-84
2022/03/28 00:40:21;;;;;;;16.45;6.20;;;;;;;5.57;74.39;102570.25;5048357;28;20048;-84
2022/03/28 00:42:49;;;;;;;23.88;6.70;;;;;;;5.55;74.59;102567.59;5051247;28;20112;-83
2022/03/28 00:45:16;;;;;;;16.73;6.70;;;;;;;5.52;75.09;102570.34;5042487;28;20064;-83
2022/03/28 00:47:42;;;;;;;18.40;6.70;;;;;;;5.53;75.65;102571.25;5030583;28;20013;-86
2022/03/28 00:50:09;;;;;;;15.60;6.90;;;;;;;5.46;77.01;102562.41;5030261;28;20036;-83
2022/03/28 00:52:37;;;;;;;15.20;7.90;;;;;;;5.41;76.11;102555.31;5047022;28;20040;-83
2022/03/28 00:55:04;;;;;;;20.30;7.68;;;;;;;5.40;75.31;102559.84;5032467;28;20123;-85
2022/03/28 00:57:30;;;;;;;23.23;7.80;;;;;;;5.35;75.98;102553.66;5048018;28;20017;-84
2022/03/28 00:59:56;;;;;;;15.90;7.35;;;;;;;5.37;75.30;102552.72;5030640;28;20512;-83
2022/03/28 01:02:21;;;;;;;16.63;7.25;;;;;;;5.34;75.44;102552.78;5031117;28;20048;-84
2022/03/28 01:04:47;;;;;;;15.45;7.20;;;;;;;5.28;75.76;102542.13;5040061;28;20037;-85
2022/03/28 01:07:13;;;;;;;19.45;8.50;;;;;;;5.29;76.31;102546.59;5039983;28;20052;-83
2022/03/28 01:09:39;;;;;;;19.50;7.70;;;;;;;5.27;75.72;102544.84;5046096;28;20135;-87
2022/03/28 01:12:06;;;;;;;20.00;7.72;;;;;;;5.20;76.91;102533.31;5046784;28;20111;-86
2022/03/28 01:14:32;;;;;;;20.90;7.85;;;;;;;5.17;77.16;102530.69;5046462;28;20040;-83
2022/03/28 01:19:41;;;;;;;15.85;6.88;;;;;;;5.14;78.00;102528.06;5046554;28;20491;-83
2022/03/28 01:22:06;;;;;;;16.77;6.60;;;;;;;5.09;78.29;102530.00;5031740;28;20043;-84
2022/03/28 01:24:32;;;;;;;14.02;6.53;;;;;;;5.02;78.83;102523.81;5047557;28;20025;-84
2022/03/28 01:26:58;;;;;;;20.33;7.22;;;;;;;5.01;77.71;102522.06;5032830;28;20055;-84
2022/03/28 01:29:25;;;;;;;13.68;6.88;;;;;;;5.00;76.74;102519.41;5031233;28;20079;-84
2022/03/28 01:31:50;;;;;;;14.10;5.95;;;;;;;5.00;76.81;102528.38;5043752;28;20041;-85
2022/03/28 01:34:20;;;;;;;21.70;7.82;;;;;;;5.03;77.20;102519.31;5042838;28;20075;-84
2022/03/28 01:36:48;;;;;;;13.18;6.70;;;;;;;4.97;77.77;102509.56;5048085;28;20033;-83
2022/03/28 01:39:15;;;;;;;12.35;5.97;;;;;;;4.97;77.41;102511.38;5030931;28;20044;-83
2022/03/28 01:41:40;;;;;;;19.95;7.53;;;;;;;4.94;78.21;102512.31;5045445;28;20032;-84
2022/03/28 01:44:07;;;;;;;14.60;6.10;;;;;;;4.94;78.25;102506.91;5032874;28;20048;-84
2022/03/28 01:46:46;;;;;;;14.13;6.25;;;;;;;4.86;77.13;102501.72;5043087;28;20067;-85
2022/03/28 01:49:12;;;;;;;16.38;6.35;;;;;;;4.86;77.53;102498.13;5043628;28;20065;-82
2022/03/28 01:51:38;;;;;;;14.23;6.25;;;;;;;4.86;76.68;102508.94;5048975;28;20104;-86
2022/03/28 01:54:04;;;;;;;21.02;6.15;;;;;;;4.82;75.80;102505.41;5047367;28;20077;-86
2022/03/28 01:56:29;;;;;;;15.82;5.80;;;;;;;4.80;75.97;102499.16;5045157;28;20064;-83
2022/03/28 01:58:55;;;;;;;15.32;6.80;;;;;;;4.79;76.54;102505.47;5029234;28;20033;-83
2022/03/28 02:01:21;;;;;;;12.95;5.47;;;;;;;4.65;76.05;102475.22;5025054;28;20539;-83
2022/03/28 02:03:46;;;;;;;18.90;6.65;;;;;;;4.78;76.38;102500.09;5046665;28;20047;-84
2022/03/28 02:06:11;;;;;;;15.60;6.00;;;;;;;4.76;78.68;102502.84;5044958;28;20462;-85
2022/03/28 02:08:38;;;;;;;16.70;6.03;;;;;;;4.74;78.13;102499.28;5038961;28;20033;-84
2022/03/28 02:11:03;;;;;;;16.27;6.10;;;;;;;4.71;78.30;102493.97;5039679;28;20035;-85
2022/03/28 02:13:28;;;;;;;16.77;6.68;;;;;;;4.71;78.07;102493.06;5046698;28;20037;-86
2022/03/28 02:15:54;;;;;;;17.73;6.03;;;;;;;4.68;77.72;102487.75;5045058;28;20037;-83
2022/03/28 02:18:19;;;;;;;20.20;8.00;;;;;;;4.67;78.68;102489.56;5046490;28;20033;-83
2022/03/28 02:20:44;;;;;;;15.30;6.97;;;;;;;4.68;78.10;102496.72;5046799;28;20395;-85
2022/03/28 02:23:10;;;;;;;16.45;6.85;;;;;;;4.64;77.07;102484.22;5047285;28;20527;-85
2022/03/28 02:25:37;;;;;;;14.18;6.13;;;;;;;4.65;76.71;102486.00;5027204;28;20041;-83
2022/03/28 02:28:03;;;;;;;22.83;7.60;;;;;;;4.62;77.55;102486.09;5046286;28;20031;-83
2022/03/28 02:30:30;;;;;;;23.60;6.85;;;;;;;4.63;78.06;102490.53;5046997;28;20510;-84
2022/03/28 02:32:56;;;;;;;13.35;6.00;;;;;;;4.56;77.25;102472.72;5040772;28;20842;-85
2022/03/28 02:35:22;;;;;;;18.77;7.75;;;;;;;4.58;80.01;102477.16;5044052;28;20491;-83
2022/03/28 02:37:48;;;;;;;21.50;7.18;;;;;;;4.52;80.56;102474.63;5030517;28;20132;-83
2022/03/28 02:40:13;;;;;;;13.52;7.10;;;;;;;4.54;80.01;102482.66;5045160;28;20544;-86
2022/03/28 02:42:39;;;;;;;17.77;7.03;;;;;;;4.50;80.41;102472.84;5044272;28;20037;-87
2022/03/28 02:45:05;;;;;;;16.77;6.47;;;;;;;4.45;80.43;102453.19;5040082;28;20391;-83
2022/03/28 02:47:31;;;;;;;19.73;7.20;;;;;;;4.41;80.69;102456.88;5047688;28;20060;-84
2022/03/28 02:49:56;;;;;;;16.67;7.25;;;;;;;4.37;79.67;102455.16;5028213;28;20056;-83
2022/03/28 02:52:22;;;;;;;19.20;6.85;;;;;;;4.33;79.55;102449.81;5039387;28;20056;-85
2022/03/28 02:54:48;;;;;;;12.57;5.63;;;;;;;4.36;78.60;102456.97;5031138;28;20039;-84
2022/03/28 02:57:14;;;;;;;13.05;6.65;;;;;;;4.29;79.69;102439.16;5028038;28;20025;-86
2022/03/28 02:59:40;;;;;;;16.05;6.10;;;;;;;4.29;79.37;102440.06;5047564;28;20033;-84
2022/03/28 03:02:06;;;;;;;17.85;6.18;;;;;;;4.29;79.52;102442.75;5026850;28;20083;-83
2022/03/28 03:04:31;;;;;;;14.95;6.65;;;;;;;4.28;79.35;102438.25;5026640;28;20025;-83
2022/03/28 03:06:57;;;;;;;16.50;5.97;;;;;;;4.29;78.76;102448.16;5020982;28;20144;-86
2022/03/28 03:09:23;;;;;;;14.85;5.95;;;;;;;4.22;78.17;102437.50;5039992;28;20037;-86
2022/03/28 03:11:48;;;;;;;13.15;5.55;;;;;;;4.21;79.67;102431.25;5045986;28;20037;-84
2022/03/28 03:14:13;;;;;;;15.23;6.15;;;;;;;4.17;80.94;102432.22;5048057;28;20484;-83
2022/03/28 03:16:40;;;;;;;15.68;6.28;;;;;;;4.16;79.65;102437.66;5028696;28;20020;-83
2022/03/28 03:19:06;;;;;;;16.33;6.30;;;;;;;4.13;79.31;102422.41;5027615;28;20116;-83
2022/03/28 03:21:31;;;;;;;13.07;5.95;;;;;;;4.09;79.50;102421.59;5030789;28;20094;-83
2022/03/28 03:23:57;;;;;;;17.70;6.88;;;;;;;4.15;80.58;102433.16;5046247;28;20040;-83
2022/03/28 03:26:22;;;;;;;15.40;6.88;;;;;;;4.09;80.98;102415.31;5043558;28;20099;-86
2022/03/28 03:28:48;;;;;;;18.05;6.10;;;;;;;4.09;80.75;102428.78;5044307;28;20415;-84
2022/03/28 03:31:14;;;;;;;13.95;5.55;;;;;;;4.01;79.47;102419.97;5023797;28;20040;-86
2022/03/28 03:33:40;;;;;;;18.67;5.82;;;;;;;4.04;78.97;102426.19;5048590;28;20039;-84
2022/03/28 03:36:06;;;;;;;17.05;5.90;;;;;;;4.00;79.38;102411.00;5043325;28;20033;-85
2022/03/28 03:38:32;;;;;;;16.23;6.65;;;;;;;4.03;79.89;102423.53;5046152;28;20029;-87
2022/03/28 03:40:58;;;;;;;15.82;6.25;;;;;;;4.03;79.52;102418.16;5041695;28;20034;-84
2022/03/28 03:43:25;;;;;;;14.98;6.05;;;;;;;4.01;81.21;102422.66;5047594;28;20554;-84
2022/03/28 03:45:51;;;;;;;20.95;6.75;;;;;;;3.99;81.48;102413.75;5046063;28;20025;-84
2022/03/28 03:48:16;;;;;;;19.52;6.30;;;;;;;3.95;81.27;102414.72;5045780;28;20039;-84
2022/03/28 03:50:41;;;;;;;16.23;6.28;;;;;;;3.91;80.77;102410.31;5049205;28;20025;-86
2022/03/28 03:53:07;;;;;;;15.80;6.38;;;;;;;3.89;80.22;102417.53;5049766;28;20091;-83
2022/03/28 03:55:33;;;;;;;17.90;6.97;;;;;;;3.87;80.06;102403.19;5028456;28;20061;-87
2022/03/28 03:57:58;;;;;;;15.35;6.07;;;;;;;3.84;80.75;102396.97;5046397;28;20041;-83
2022/03/28 04:00:24;;;;;;;11.98;5.65;;;;;;;3.82;81.33;102398.81;5045593;28;20540;-85
2022/03/28 04:02:50;;;;;;;21.73;7.10;;;;;;;3.69;81.48;102391.00;5029112;28;20036;-87
2022/03/28 04:05:16;;;;;;;13.27;6.00;;;;;;;3.70;80.53;102400.84;5031670;28;20221;-84
2022/03/28 04:07:42;;;;;;;14.73;6.32;;;;;;;3.67;79.94;102384.75;5031327;28;20079;-83
2022/03/28 04:10:08;;;;;;;19.80;6.60;;;;;;;3.67;81.89;102388.31;5032689;28;20025;-84
2022/03/28 04:12:33;;;;;;;15.02;5.50;;;;;;;3.63;80.81;102385.72;5048294;28;20591;-88
2022/03/28 04:15:00;;;;;;;14.15;6.22;;;;;;;3.60;81.32;102392.06;5030636;28;20087;-85
2022/03/28 04:17:28;;;;;;;11.82;5.95;;;;;;;3.61;80.39;102391.13;5046172;28;20029;-83
2022/03/28 04:19:56;;;;;;;15.32;6.32;;;;;;;3.60;79.64;102384.00;5033408;28;20078;-85
2022/03/28 04:22:21;;;;;;;14.35;5.38;;;;;;;3.59;79.83;102387.59;5033574;28;20048;-84
2022/03/28 04:24:47;;;;;;;16.92;5.82;;;;;;;3.58;80.82;102377.72;5033661;28;20527;-83
2022/03/28 04:27:12;;;;;;;17.75;6.63;;;;;;;3.57;81.25;102376.84;5031323;28;20075;-83
2022/03/28 04:29:37;;;;;;;14.40;6.07;;;;;;;3.57;82.21;102378.66;5033258;28;20141;-83
2022/03/28 04:32:03;;;;;;;15.35;6.18;;;;;;;3.51;81.85;102371.59;5048028;28;20028;-84
2022/03/28 04:34:29;;;;;;;18.85;6.32;;;;;;;3.52;80.42;102383.25;5029180;28;20101;-85
2022/03/28 04:36:54;;;;;;;15.05;5.55;;;;;;;3.50;79.69;102377.00;5052595;28;20025;-84
2022/03/28 04:39:19;;;;;;;9.32;4.78;;;;;;;3.49;79.54;102375.22;5051779;28;20040;-85
2022/03/28 04:41:45;;;;;;;21.58;6.38;;;;;;;3.51;79.02;102387.75;5028178;28;20037;-85
2022/03/28 04:44:10;;;;;;;12.27;4.43;;;;;;;3.48;79.53;102386.91;5046960;28;20028;-85
2022/03/28 04:46:36;;;;;;;18.20;6.97;;;;;;;3.44;80.38;102393.25;5024879;28;20040;-84
2022/03/28 04:49:02;;;;;;;16.40;6.50;;;;;;;3.38;81.75;102390.66;5047978;28;20033;-85
2022/03/28 04:51:27;;;;;;;17.00;7.13;;;;;;;3.36;81.00;102387.09;5033408;28;20074;-88
2022/03/28 04:53:52;;;;;;;18.58;6.43;;;;;;;3.39;81.76;102387.94;5042500;28;20041;-85
2022/03/28 04:56:18;;;;;;;15.35;6.65;;;;;;;3.34;81.94;102384.44;5048918;28;20119;-85
2022/03/28 04:58:43;;;;;;;18.40;6.80;;;;;;;3.30;81.98;102377.34;5048510;28;20033;-86
2022/03/28 05:01:08;;;;;;;16.25;6.95;;;;;;;3.29;81.87;102384.53;5046598;28;20661;-86
2022/03/28 05:03:34;;;;;;;20.17;7.00;;;;;;;3.26;82.21;102384.59;5039666;28;20506;-88
2022/03/28 05:05:59;;;;;;;18.70;6.85;;;;;;;3.17;81.45;102375.78;5031906;28;20053;-86
2022/03/28 05:08:25;;;;;;;17.77;6.57;;;;;;;3.21;81.66;102390.94;5050532;28;20091;-85
2022/03/28 05:10:50;;;;;;;14.68;6.20;;;;;;;3.16;80.95;102384.78;5029397;28;20059;-89
2022/03/28 05:13:16;;;;;;;22.23;7.53;;;;;;;3.18;80.99;102386.53;5039184;28;20025;-87
2022/03/28 05:15:41;;;;;;;14.85;5.60;;;;;;;3.15;80.38;102383.88;5049196;28;20025;-87
2022/03/28 05:18:06;;;;;;;18.17;6.22;;;;;;;3.12;80.10;102386.63;5032099;28;20032;-86
2022/03/28 05:20:32;;;;;;;20.52;6.18;;;;;;;3.10;81.99;102384.88;5048525;28;20745;-85
2022/03/28 05:22:57;;;;;;;17.17;6.13;;;;;;;3.11;80.34;102389.34;5048887;28;20033;-88
2022/03/28 05:25:22;;;;;;;18.58;7.00;;;;;;;3.04;79.92;102381.38;5049778;28;20037;-85
2022/03/28 05:27:48;;;;;;;14.27;6.20;;;;;;;3.07;79.82;102381.31;5047935;28;20037;-87
2022/03/28 05:30:14;;;;;;;14.95;5.80;;;;;;;3.09;79.88;102392.06;5049095;28;20364;-85
2022/03/28 05:32:42;;;;;;;15.52;5.40;;;;;;;3.05;80.19;102379.59;5046792;28;20033;-84
2022/03/28 05:35:09;;;;;;;15.35;5.95;;;;;;;3.06;80.39;102384.03;5045012;28;20072;-85
2022/03/28 05:37:35;;;;;;;17.85;6.18;;;;;;;3.10;79.71;102388.44;5032018;28;20104;-84
2022/03/28 05:40:02;;;;;;;13.40;5.28;;;;;;;3.13;80.43;102388.41;5049590;28;20669;-84
2022/03/28 05:42:27;;;;;;;11.82;5.60;;;;;;;3.14;80.55;102379.44;5026917;28;20014;-88
2022/03/28 05:44:53;;;;;;;13.73;5.60;;;;;;;3.04;80.56;102361.69;5046094;28;20085;-84
2022/03/28 05:47:19;;;;;;;18.38;5.65;;;;;;;3.16;81.21;102372.22;5047482;28;20029;-85
2022/03/28 05:49:44;;;;;;;15.20;5.55;;;;;;;3.28;79.87;102365.75;5030319;28;20032;-87
2022/03/28 05:52:09;;;;;;;17.65;5.80;;;;;;;3.43;79.85;102361.88;5049362;28;20660;-85
2022/03/28 05:54:35;;;;;;;14.38;5.28;;;;;;;3.66;79.32;102370.41;5029065;28;20029;-86
2022/03/28 05:57:01;;;;;;;10.90;5.07;;;;;;;3.89;78.85;102366.38;5040913;28;20096;-86
2022/03/28 05:59:26;;;;;;;17.88;6.20;;;;;;;4.05;81.01;102368.72;5027628;28;20105;-87
2022/03/28 06:01:51;;;;;;;16.17;6.20;;;;;;;4.03;79.96;102358.91;5045058;28;20064;-84
2022/03/28 06:04:17;;;;;;;16.10;6.22;;;;;;;3.98;80.10;102366.19;5041677;28;20033;-85
2022/03/28 06:06:43;;;;;;;18.45;6.00;;;;;;;3.92;79.98;102356.44;5041671;28;20043;-85
2022/03/28 06:09:09;;;;;;;19.98;6.30;;;;;;;3.84;80.85;102351.22;5051567;28;20494;-88
2022/03/28 06:11:34;;;;;;;28.10;6.40;;;;;;;3.82;80.65;102362.91;5040284;28;20472;-85
2022/03/28 06:14:01;;;;;;;17.75;6.72;;;;;;;3.81;80.76;102363.84;5037096;28;20061;-86
2022/03/28 06:16:27;;;;;;;21.75;5.13;;;;;;;3.88;79.51;102364.63;5037046;28;20025;-86
2022/03/28 06:18:53;;;;;;;20.20;5.95;;;;;;;3.93;79.53;102368.97;5026489;28;20040;-86
2022/03/28 06:21:19;;;;;;;19.90;6.05;;;;;;;4.05;78.77;102371.41;5025935;28;20494;-86
2022/03/28 06:23:44;;;;;;;15.68;5.28;;;;;;;4.15;78.76;102363.13;5039974;28;20364;-85
2022/03/28 06:26:12;;;;;;;22.85;6.30;;;;;;;4.21;79.31;102355.81;5038857;28;20388;-85
2022/03/28 06:28:40;;;;;;;24.02;6.60;;;;;;;4.50;79.20;102365.06;5039103;28;20033;-88
2022/03/28 06:31:06;;;;;;;14.95;6.47;;;;;;;4.71;77.94;102359.19;5026394;28;20025;-86
2022/03/28 06:33:32;;;;;;;15.13;5.95;;;;;;;4.81;76.74;102357.16;5042301;28;20037;-85
2022/03/28 06:35:58;;;;;;;25.42;7.05;;;;;;;4.85;76.90;102357.03;5025149;28;20024;-84
2022/03/28 06:38:23;;;;;;;21.95;5.78;;;;;;;4.96;76.88;102350.50;5059454;28;20119;-86
2022/03/28 06:40:48;;;;;;;26.38;6.65;;;;;;;5.22;76.83;102348.03;5042998;28;20037;-84
2022/03/28 06:43:14;;;;;;;15.48;6.30;;;;;;;5.46;76.65;102354.59;5044911;28;20103;-87
2022/03/28 06:45:40;;;;;;;21.15;6.93;;;;;;;5.64;76.13;102347.78;5029123;28;20037;-86
2022/03/28 06:48:06;;;;;;;15.55;5.63;;;;;;;5.91;76.91;102350.63;5043589;28;20381;-87
2022/03/28 06:50:31;;;;;;;19.15;6.13;;;;;;;6.47;75.43;102357.06;5039856;28;20031;-86
2022/03/28 06:52:57;;;;;;;19.58;6.38;;;;;;;7.12;74.62;102356.75;5038376;28;20053;-87
2022/03/28 06:55:23;;;;;;;25.10;6.50;;;;;;;7.84;73.03;102351.50;5045188;28;20017;-88
2022/03/28 06:57:48;;;;;;;19.98;7.20;;;;;;;8.58;71.87;102345.97;5042859;28;20033;-86
2022/03/28 07:00:14;;;;;;;23.55;6.80;;;;;;;9.07;70.78;102346.69;5030874;28;20033;-86
2022/03/28 07:02:39;;;;;;;24.23;7.32;;;;;;;9.57;68.83;102347.25;5025845;28;20071;-86
2022/03/28 07:05:06;;;;;;;27.95;7.90;;;;;;;9.93;67.33;102343.78;5040830;28;20121;-86
2022/03/28 07:07:53;;;;;;;19.58;6.68;;;;;;;10.04;68.32;102338.78;5041488;28;20432;-86
2022/03/28 07:10:20;;;;;;;19.85;6.18;;;;;;;10.38;65.69;102337.22;5038320;28;20432;-88
2022/03/28 07:12:46;;;;;;;23.15;7.47;;;;;;;10.81;65.59;102327.81;5043400;28;20435;-84
2022/03/28 07:15:13;;;;;;;24.38;6.30;;;;;;;11.06;65.63;102334.78;5026787;28;20528;-87
2022/03/28 07:17:54;;;;;;;23.25;6.95;;;;;;;11.71;64.52;102336.81;5042677;28;20032;-87
2022/03/28 07:20:25;;;;;;;25.48;7.53;;;;;;;12.34;60.99;102332.50;5036486;28;20041;-84
2022/03/28 07:22:51;;;;;;;17.80;7.07;;;;;;;12.50;59.72;102326.13;5045111;28;20036;-85
2022/03/28 07:25:16;;;;;;;21.48;6.70;;;;;;;12.60;58.74;102325.59;5050748;28;20021;-88
2022/03/28 07:27:42;;;;;;;25.80;7.50;;;;;;;12.82;59.15;102320.63;5032175;28;20036;-86
2022/03/28 07:30:09;;;;;;;19.23;7.32;;;;;;;13.20;58.62;102326.59;5033374;28;20519;-88
2022/03/28 07:32:37;;;;;;;25.85;7.82;;;;;;;13.53;58.01;102312.75;5046397;28;20103;-86
2022/03/28 07:35:02;;;;;;;28.42;7.85;;;;;;;13.61;57.33;102325.94;5048657;28;20052;-84
2022/03/28 07:37:28;;;;;;;26.88;8.27;;;;;;;13.50;57.29;102325.72;5050327;28;20052;-86
2022/03/28 07:39:54;;;;;;;22.42;7.63;;;;;;;13.26;57.53;102322.63;5050960;28;20530;-88
2022/03/28 07:42:20;;;;;;;24.67;8.40;;;;;;;12.96;58.45;102320.72;5038318;28;20041;-85
2022/03/28 07:44:47;;;;;;;23.50;8.02;;;;;;;12.40;59.22;102305.78;5038338;28;20037;-87
2022/03/28 07:47:13;;;;;;;24.35;9.50;;;;;;;11.99;61.80;102308.97;5040304;28;20048;-84
2022/03/28 07:49:38;;;;;;;24.00;8.35;;;;;;;12.16;62.37;102301.66;5022521;28;20842;-87
2022/03/28 07:52:08;;;;;;;22.02;8.57;;;;;;;12.38;62.31;102302.22;5047604;28;20025;-86
2022/03/28 07:54:36;;;;;;;28.02;9.27;;;;;;;12.14;61.64;102288.13;5020583;28;20067;-86
2022/03/28 07:57:02;;;;;;;33.45;9.65;;;;;;;11.83;62.79;102286.19;5027820;28;20037;-87
2022/03/28 07:59:27;;;;;;;23.20;9.88;;;;;;;11.67;64.60;102288.84;5030378;28;20498;-85
2022/03/28 08:01:52;;;;;;;32.20;9.70;;;;;;;11.68;64.44;102274.25;5041299;28;20037;-85
2022/03/28 08:04:18;;;;;;;24.60;9.27;;;;;;;11.95;64.79;102287.41;5040258;28;20356;-87
2022/03/28 08:06:43;;;;;;;32.13;11.40;;;;;;;12.21;64.17;102296.84;5048620;28;20375;-86
2022/03/28 08:09:09;;;;;;;32.13;11.18;;;;;;;12.61;63.29;102286.38;5049846;28;20063;-84
2022/03/28 08:11:35;;;;;;;23.90;10.10;;;;;;;12.83;62.14;102286.03;5030737;28;20052;-84
2022/03/28 08:14:01;;;;;;;27.48;10.77;;;;;;;13.09;61.56;102288.06;5049610;28;20040;-86
2022/03/28 08:16:26;;;;;;;31.15;11.18;;;;;;;13.21;60.90;102283.72;5046759;28;20025;-84
2022/03/28 08:18:52;;;;;;;26.67;11.20;;;;;;;13.58;60.97;102286.97;5054920;28;20082;-87
2022/03/28 08:21:18;;;;;;;25.40;10.65;;;;;;;13.51;58.74;102284.59;5051163;28;20036;-87
2022/03/28 08:23:43;;;;;;;29.17;11.32;;;;;;;13.51;59.13;102281.00;5028817;28;20045;-87
2022/03/28 08:26:09;;;;;;;29.42;11.90;;;;;;;13.43;59.50;102270.56;5047639;28;20033;-87
2022/03/28 08:28:35;;;;;;;27.75;11.00;;;;;;;13.11;59.68;102282.53;5047751;28;20392;-86
2022/03/28 08:31:00;;;;;;;31.55;12.52;;;;;;;13.11;61.89;102268.88;5050066;28;20847;-86
2022/03/28 08:33:26;;;;;;;31.33;11.88;;;;;;;13.44;61.77;102274.16;5048921;28;20812;-86
2022/03/28 08:35:52;;;;;;;35.25;12.60;;;;;;;13.64;61.51;102267.44;5045188;28;20033;-87
2022/03/28 08:38:18;;;;;;;30.40;11.60;;;;;;;13.71;60.20;102272.44;5045659;28;20372;-86
2022/03/28 08:40:44;;;;;;;36.15;13.13;;;;;;;13.78;59.93;102265.59;5048454;28;20096;-86
2022/03/28 08:43:09;;;;;;;30.02;12.43;;;;;;;13.85;60.09;102257.00;5045694;28;20078;-87
2022/03/28 08:45:38;;;;;;;33.90;13.95;;;;;;;13.61;59.46;102262.16;5055383;28;20044;-86
2022/03/28 08:48:05;;;;;;;39.63;13.38;;;;;;;13.60;60.99;102271.34;5048659;28;20041;-87
2022/03/28 08:50:33;;;;;;;36.03;13.20;;;;;;;13.61;59.57;102268.50;5043827;28;20040;-86
2022/03/28 08:52:58;;;;;;;29.92;11.77;;;;;;;13.30;62.33;102257.72;5029374;28;20443;-85
2022/03/28 08:55:24;;;;;;;36.17;13.57;;;;;;;13.16;60.58;102262.16;5047386;28;20425;-85
2022/03/28 08:57:50;;;;;;;33.67;13.55;;;;;;;13.30;61.56;102258.59;5046798;28;20037;-86
2022/03/28 09:00:16;;;;;;;34.42;12.50;;;;;;;13.42;60.83;102262.44;5049363;28;20044;-86
2022/03/28 09:02:45;;;;;;;30.45;12.13;;;;;;;13.62;61.67;102258.47;5029754;28;20017;-85
2022/03/28 09:05:12;;;;;;;32.85;12.90;;;;;;;13.90;60.80;102249.41;5042655;28;20106;-88
2022/03/28 09:07:38;;;;;;;31.08;12.23;;;;;;;13.88;58.61;102251.34;5043893;28;20036;-85
2022/03/28 09:10:07;;;;;;;27.33;11.20;;;;;;;13.64;59.99;102260.13;5030891;28;20492;-88
2022/03/28 09:12:39;;;;;;;30.65;13.40;;;;;;;13.62;61.92;102261.22;5040251;28;20036;-85
2022/03/28 09:15:09;;;;;;;33.53;12.68;;;;;;;13.72;61.82;102245.97;5038886;28;20467;-87
2022/03/28 09:17:38;;;;;;;33.95;13.35;;;;;;;13.76;60.26;102245.69;5046674;28;20032;-88
2022/03/28 09:20:04;;;;;;;29.77;13.25;;;;;;;13.67;60.00;102249.00;5027687;28;20100;-84
2022/03/28 09:22:31;;;;;;;40.28;15.60;;;;;;;13.50;61.50;102255.50;5048169;28;20040;-84
2022/03/28 09:25:07;;;;;;;34.08;12.65;;;;;;;13.68;62.82;102244.41;5031587;28;20158;-87
2022/03/28 09:27:37;;;;;;;36.40;13.88;;;;;;;13.91;60.89;102246.56;5044173;28;20064;-86
2022/03/28 09:30:07;;;;;;;32.17;14.00;;;;;;;14.01;62.01;102247.72;5047860;28;20013;-89
2022/03/28 09:32:38;;;;;;;37.88;16.23;;;;;;;14.11;62.00;102253.47;5040625;28;20039;-84
2022/03/28 09:35:10;;;;;;;33.70;15.02;;;;;;;14.46;60.24;102236.59;5028578;28;20124;-85
2022/03/28 09:38:08;;;;;;;36.33;16.27;;;;;;;14.57;58.56;102239.53;5023297;28;20032;-88
2022/03/28 09:40:45;;;;;;;38.00;16.13;;;;;;;14.15;58.04;102238.63;5044524;28;20036;-86
2022/03/28 09:43:31;;;;;;;35.28;15.27;;;;;;;13.98;59.12;102234.22;5043217;28;20116;-84
2022/03/28 09:45:58;;;;;;;34.55;13.45;;;;;;;14.09;60.68;102229.94;5021768;28;20041;-86
2022/03/28 09:48:28;;;;;;;34.00;14.68;;;;;;;14.38;59.87;102225.28;5041953;28;20041;-87
2022/03/28 09:51:03;;;;;;;42.40;15.73;;;;;;;14.69;59.72;102224.13;5027400;28;20029;-84
2022/03/28 09:53:32;;;;;;;37.60;16.40;;;;;;;14.78;57.28;102226.22;5044443;28;20047;-84
2022/03/28 09:56:09;;;;;;;45.05;16.20;;;;;;;14.88;57.62;102218.28;5043452;28;20160;-87
2022/03/28 09:58:46;;;;;;;35.05;16.10;;;;;;;15.20;58.31;102216.94;5026995;28;20088;-85
2022/03/28 10:01:19;;;;;;;36.75;15.95;;;;;;;15.53;57.28;102213.66;5036336;28;20036;-88
2022/03/28 10:03:47;;;;;;;36.55;15.40;;;;;;;15.88;57.02;102212.13;5042653;28;20070;-85
2022/03/28 10:06:13;;;;;;;39.60;16.33;;;;;;;15.94;54.26;102201.56;5037825;28;20099;-85
2022/03/28 10:08:38;;;;;;;35.22;15.23;;;;;;;16.07;56.32;102204.28;5041306;28;20037;-85
2022/03/28 10:11:05;;;;;;;32.40;14.40;;;;;;;16.26;53.61;102210.16;5043466;28;20117;-88
2022/03/28 10:13:31;;;;;;;36.75;15.38;;;;;;;16.07;52.48;102205.16;5039307;28;20122;-89
2022/03/28 10:15:58;;;;;;;35.22;16.55;;;;;;;15.81;54.47;102195.25;5043480;28;20525;-88
2022/03/28 10:18:27;;;;;;;36.03;16.60;;;;;;;15.82;55.02;102202.47;5040420;28;20036;-87
2022/03/28 10:20:54;;;;;;;34.33;16.17;;;;;;;15.80;53.25;102199.81;5028792;28;20036;-84
2022/03/28 10:23:26;;;;;;;37.03;16.90;;;;;;;16.04;53.03;102196.25;5023564;28;20051;-87
2022/03/28 10:25:54;;;;;;;35.17;17.33;;;;;;;16.24;51.00;102194.81;5044589;28;20033;-85
2022/03/28 10:28:20;;;;;;;51.28;18.95;;;;;;;16.57;52.48;102194.13;5045086;28;20037;-85
2022/03/28 10:30:46;;;;;;;46.05;16.75;;;;;;;16.76;52.28;102179.88;5042677;28;20041;-88
2022/03/28 10:33:22;;;;;;;35.05;16.67;;;;;;;16.64;50.97;102181.66;5018822;28;20764;-85
2022/03/28 10:36:00;;;;;;;32.55;15.85;;;;;;;16.68;49.58;102172.16;5026847;28;20729;-87
2022/03/28 10:38:26;;;;;;;39.40;18.20;;;;;;;16.67;48.87;102177.81;5041617;28;20037;-84
2022/03/28 10:40:56;;;;;;;28.63;14.77;;;;;;;16.85;51.98;102165.41;5023977;28;20021;-89
2022/03/28 10:43:25;;;;;;;34.70;16.33;;;;;;;17.04;52.61;102164.84;5037259;28;20101;-87
2022/03/28 10:45:59;;;;;;;43.20;17.70;;;;;;;16.96;49.47;102165.44;5047014;28;20032;-88
2022/03/28 10:48:55;;;;;;;34.00;16.67;;;;;;;17.12;51.53;102164.25;5042592;28;20508;-84
2022/03/28 10:51:24;;;;;;;34.90;16.75;;;;;;;17.56;52.47;102152.41;5016959;28;20055;-84
2022/03/28 10:53:54;;;;;;;34.78;17.17;;;;;;;17.59;46.62;102155.81;5029783;28;20387;-84
2022/03/28 10:56:30;;;;;;;34.17;16.35;;;;;;;17.73;48.88;102151.06;5067072;28;20032;-88
2022/03/28 10:59:03;;;;;;;35.63;18.13;;;;;;;17.96;48.83;102150.06;5042835;28;20041;-88
2022/03/28 11:01:39;;;;;;;36.75;17.92;;;;;;;18.12;49.13;102155.16;5039660;28;20043;-86
2022/03/28 11:04:15;;;;;;;32.95;17.98;;;;;;;17.82;48.28;102153.09;5041446;28;20033;-85
2022/03/28 11:07:00;;;;;;;33.63;16.65;;;;;;;17.28;49.17;102138.13;5041000;28;20051;-85
2022/03/28 11:09:32;;;;;;;34.65;16.80;;;;;;;17.15;49.06;102140.09;5021316;28;20094;-84
2022/03/28 11:12:04;;;;;;;36.05;17.58;;;;;;;17.52;48.27;102138.03;5037833;28;20115;-87
2022/03/28 11:14:45;;;;;;;33.00;17.00;;;;;;;17.95;49.87;102133.66;5044891;28;20097;-88
2022/03/28 11:17:25;;;;;;;33.70;16.40;;;;;;;17.66;48.36;102136.03;5018759;28;20044;-88
2022/03/28 11:20:09;;;;;;;32.08;16.42;;;;;;;17.84;50.61;102127.16;5033246;28;20039;-85
2022/03/28 11:22:48;;;;;;;38.22;16.98;;;;;;;17.84;47.40;102126.28;5024952;28;20044;-85